Johan Hjort — LDGJ — position and weather

sailwx.info

Track history (hours):
 
Tides and Currents Weather Stations Pressure Air Temp Water Temp Dewpoint Dewpoint Depression Visibility Wind Speed Wind Dir Waves Ship Positions

Oceanographic research ship Johan Hjort (Norway)

Detailed information on ship capabilities available from University of Delaware's Ocean Information Center and ARCUS's ALIAS (Arctic Logistics Information and Support) project.

Last reported at 2019-Sep-17 07:00 UTC. Time now 2019-Sep-22 01:31 UTC.
Position N 77°30' E 037°30'.

MMSI: 257139000.

Wind from 040 at 25 knots

Barometer 1014.8 mb
Air temperature 0.2 ° C
Dewpoint -2.7 ° C
Water temperature 2.2 ° C

Date/timePositionNaut miles runAvg speedWind from/ knotsBaromVisibWave heightAir tempDewpointWater temp
2019-Sep-17 07:00N 77°30' E 037°30'4 3.9 040 / 251014.8 0.2-2.7 2.2
2019-Sep-17 06:00N 77°30' E 037°48'6 6.1 040 / 271014.7 0.1-2.5 2.3
2019-Sep-17 05:00N 77°24' E 037°54'6 6.0 040 / 271014.6 0.2-1.9 2.2
2019-Sep-17 04:00N 77°18' E 037°54'5 5.3 040 / 271014.3 0.4-1.7 2.3
2019-Sep-17 03:00N 77°18' E 037°30'7 6.6 040 / 291014.2 1.0-1.8 2.3
2019-Sep-17 02:00N 77°18' E 037°00'7 6.6 040 / 291014.7 1.3-1.7 2.1
2019-Sep-17 01:00N 77°18' E 036°30'8 7.9 040 / 311015.0 1.5-1.0 2.3
2019-Sep-17 00:00N 77°18' E 035°54'3 2.6 050 / 291015.3 2.0-1.0 2.2
2019-Sep-16 23:00N 77°18' E 035°42'5 5.3 050 / 251016.0 1.9-0.9 2.3
2019-Sep-16 22:00N 77°18' E 035°18'8 7.9 050 / 291015.5 1.8-0.7 2.3
2019-Sep-16 21:00N 77°18' E 034°42'8 7.9 050 / 271015.7 2.1-0.4 2.5
2019-Sep-16 20:00N 77°18' E 034°06'8 7.9 050 / 251016.0 1.7-0.7 2.6
2019-Sep-16 19:00N 77°18' E 033°30'8 7.9 060 / 271016.1 2.3-1.3 2.8
2019-Sep-16 18:00N 77°18' E 032°54'8 7.9 050 / 291015.8 1.8-0.1 3.1
2019-Sep-16 17:00N 77°18' E 032°18'8 7.9 050 / 311015.7 2.1-0.3 3.7
2019-Sep-16 16:00N 77°18' E 031°42'16 7.9 050 / 311015.7 2.4-0.2 4.1
2019-Sep-16 14:00N 77°18' E 030°30'8 7.9 040 / 291015.9 2.3-0.2 3.6
2019-Sep-16 13:00N 77°18' E 029°54'9 9.2 040 / 271016.3 2.0-0.3 4.2
2019-Sep-16 12:00N 77°18' E 029°12'8 7.9 040 / 271016.7 1.3-0.9 2.0
2019-Sep-16 11:00N 77°18' E 028°36'8 7.9 040 / 251016.7 1.5-1.4 2.9
2019-Sep-16 10:00N 77°18' E 028°00'40 5.7 040 / 251016.7 1.0-1.2 1.0
2019-Sep-16 03:00N 77°18' E 025°00'19 6.5 060 / 231015.1 1.5-1.2 1.6
2019-Sep-16 00:00N 77°12' E 023°36'9 9.0 070 / 211013.2 1.5 0.4 1.4
2019-Sep-15 23:00N 77°06' E 023°06'9 9.0 060 / 211012.2 2.1 1.1 1.1
2019-Sep-15 22:00N 77°00' E 022°36'8 8.1 030 / 191011.2 1.9 0.9 1.1
2019-Sep-15 21:00N 76°54' E 022°12'20 5.1 040 / 191011.0 1.1 0.1 1.4
2019-Sep-15 17:00N 76°54' E 023°42'0 0.0 080 / 141010.3 1.8 0.6 1.8
2019-Sep-15 16:00N 76°54' E 023°42'3 2.7 090 / 141010.1 2.6 1.3 1.5
2019-Sep-15 15:00N 76°54' E 023°54'8 8.2 100 / 121009.7 2.5 1.0 1.9
2019-Sep-15 14:00N 76°54' E 024°30'7 6.8 120 / 101009.5 3.0 1.5 1.9
2019-Sep-15 13:00N 76°54' E 025°00'1 1.4 100 / 121009.3 3.0 1.2 1.9
2019-Sep-15 12:00N 76°54' E 025°06'7 6.6 110 / 171008.7 3.1 1.1 1.9
2019-Sep-15 11:00N 77°00' E 025°18'3 2.7 120 / 161008.2 3.2 1.1 1.9
2019-Sep-15 10:00N 77°00' E 025°30'38 5.4 120 / 141007.8 3.0 0.8 1.3
2019-Sep-15 03:00N 77°00' E 028°18'7 6.7 130 / 171005.3 4.0 2.1 1.0
2019-Sep-15 02:00N 77°00' E 028°48'9 9.4 130 / 161005.0 5.0 3.1 4.6
2019-Sep-15 01:00N 77°00' E 029°30'9 9.4 140 / 141004.8 5.4 3.4 5.2
2019-Sep-15 00:00N 77°00' E 030°12'0 0.0 160 / 141004.7 5.2 2.6 4.9
2019-Sep-14 23:00N 77°00' E 030°12'0 0.0 170 / 171004.2 4.9 3.0 5.0
2019-Sep-14 22:00N 77°00' E 030°12'0 0.0 170 / 191003.1 5.7 3.6 4.7
2019-Sep-14 21:00N 77°00' E 030°12'0 0.0 200 / 141002.2 5.0 3.4 4.8
2019-Sep-14 20:00N 77°00' E 030°12'3 2.7 120 / 161001.2 4.9 3.7 4.9
2019-Sep-14 19:00N 77°00' E 030°24'7 6.7 110 / 251000.7 4.7 3.4 4.8
2019-Sep-14 18:00N 77°00' E 030°54'9 9.4 110 / 291000.7 4.7 3.3 4.5
2019-Sep-14 17:00N 77°00' E 031°36'1110.8 110 / 291001.0 4.7 3.2 4.0
2019-Sep-14 16:00N 77°00' E 032°24'5 5.4 100 / 291001.7 5.0 3.5 3.8
2019-Sep-14 15:00N 77°00' E 032°48'1 1.3 100 / 271002.3 4.4 3.1 3.1
2019-Sep-14 14:00N 77°00' E 032°54'1 1.3 100 / 311002.0 3.8 2.4 3.0
2019-Sep-14 13:00N 77°00' E 032°48'5 5.4 100 / 291002.7 6.1 3.2 2.9
2019-Sep-14 12:00N 77°00' E 033°12'9 9.4 100 / 291002.8 6.0 2.4 2.9
2019-Sep-14 11:00N 77°00' E 033°54'1110.8 100 / 291003.2 6.2 2.9 2.9
2019-Sep-14 10:00N 77°00' E 034°42'9 9.4 100 / 271003.8 5.6 2.1 2.6
2019-Sep-14 09:00N 77°00' E 035°24'5 5.4 100 / 271004.3 4.5 2.1 2.4
2019-Sep-14 08:00N 77°00' E 035°48'1 1.3 100 / 291004.5 3.7 1.7 2.5
2019-Sep-14 07:00N 77°00' E 035°54'0 0.0 100 / 271004.3 3.7 1.5 2.4
2019-Sep-14 06:00N 77°00' E 035°54'5 5.4 100 / 271004.3 6.2 2.9 2.6
2019-Sep-14 05:00N 77°00' E 036°18'1111.2 110 / 271004.6 4.9 2.2 2.4
2019-Sep-14 04:00N 76°54' E 037°00'4 4.1 100 / 271004.7 5.7 2.7 2.4
2019-Sep-14 03:00N 76°54' E 037°18'4 4.1 100 / 291005.0 3.8 1.7 2.4
2019-Sep-14 02:00N 76°54' E 037°00'7 6.8 110 / 291005.0 4.2 2.0 2.5
2019-Sep-14 01:00N 76°54' E 037°30'4 4.1 110 / 271005.3 5.0 2.0 2.4
2019-Sep-14 00:00N 76°54' E 037°48'0 0.0 110 / 271005.3 4.9 2.7 2.4
2019-Sep-13 23:00N 76°54' E 037°48'1 1.4 110 / 251005.0 4.1 2.3 2.4
2019-Sep-13 22:00N 76°54' E 037°54'6 6.2 110 / 251004.8 4.0 2.6 2.4
2019-Sep-13 21:00N 76°48' E 037°48'6 6.2 120 / 251004.6 4.4 2.7 2.5
2019-Sep-13 20:00N 76°42' E 037°42'8 8.3 120 / 271003.7 5.0 3.3 2.9
2019-Sep-13 19:00N 76°42' E 037°06'7 6.9 120 / 271003.1 5.0 3.8 3.1
2019-Sep-13 18:00N 76°42' E 036°36'8 8.3 120 / 271002.5 4.9 3.8 3.2
2019-Sep-13 17:00N 76°42' E 036°00'10 9.7 120 / 251001.9 4.7 3.6 2.6
2019-Sep-13 16:00N 76°42' E 035°18'8 8.3 110 / 271001.5 4.5 3.5 2.5
2019-Sep-13 15:00N 76°42' E 034°42'10 9.7 110 / 251000.8 4.3 3.2 2.6
2019-Sep-13 14:00N 76°42' E 034°00'4 4.1 110 / 231000.7 4.2 3.1 2.7
2019-Sep-13 13:00N 76°42' E 033°42'1 1.4 110 / 231000.7 4.1 3.0 2.6
2019-Sep-13 12:00N 76°42' E 033°48'10 9.7 100 / 231000.5 4.1 3.0 2.8
2019-Sep-13 11:00N 76°42' E 033°06'10 9.7 110 / 231000.1 4.2 3.1 3.8
2019-Sep-13 10:00N 76°42' E 032°24'1111.3 110 / 23999.5 4.7 3.7 4.4
2019-Sep-13 09:00N 76°48' E 031°42'8 8.2 110 / 23999.0 5.2 4.1 4.5
2019-Sep-13 08:00N 76°48' E 031°06'1111.3 110 / 25998.3 5.5 4.4 4.6
2019-Sep-13 07:00N 76°42' E 030°24'10 9.7 110 / 25998.0 5.5 4.4 4.9
2019-Sep-13 06:00N 76°42' E 029°42'10 9.7 110 / 23997.5 5.5 4.5 5.3
2019-Sep-13 05:00N 76°42' E 029°00'18 9.0 110 / 21997.5 5.4 4.3 3.9
2019-Sep-13 03:00N 76°42' E 027°42'28 9.4 110 / 19997.0 3.7 2.6 3.1
2019-Sep-13 00:00N 76°48' E 025°42'1010.2 130 / 17996.6 3.0 2.0 1.8
2019-Sep-12 23:00N 76°42' E 025°06'8 8.3 120 / 14995.7 5.0 3.9 1.9
2019-Sep-12 22:00N 76°42' E 024°30'1111.4 110 / 17995.7 4.6 3.6 1.9
2019-Sep-12 21:00N 76°36' E 023°48'8 8.3 120 / 17995.6 4.1 3.1 1.9
2019-Sep-12 20:00N 76°36' E 023°12'6 5.6 120 / 16995.5 3.9 2.9 3.0
2019-Sep-12 19:00N 76°36' E 022°48'3 2.8 120 / 14995.6 4.1 3.1 2.6
2019-Sep-12 18:00N 76°36' E 022°36'8 8.3 120 / 17995.4 3.6 2.6 2.2
2019-Sep-12 17:00N 76°36' E 022°00'8 8.3 120 / 17994.7 4.1 3.1 2.4
2019-Sep-12 16:00N 76°36' E 021°24'1111.5 120 / 17994.8 4.7 3.6 3.0
2019-Sep-12 15:00N 76°30' E 020°42'10 9.8 110 / 17994.5 4.4 3.3 2.5
2019-Sep-12 14:00N 76°30' E 020°00'1211.5 090 / 14994.2 4.4 3.3 4.1
2019-Sep-12 13:00N 76°24' E 019°18'10 9.9 070 / 12994.3 4.7 3.7 4.4
2019-Sep-12 12:00N 76°24' E 018°36'10 9.9 040 / 16994.3 4.9 3.8 4.3
2019-Sep-12 11:00N 76°24' E 017°54'1010.4 030 / 21994.4 4.0 2.9 4.2
2019-Sep-12 10:00N 76°18' E 017°18'9 8.5 020 / 29994.2 3.1 1.9 2.9
2019-Sep-12 09:00N 76°18' E 016°42'5 7.2 040 / 37994.1 2.6 1.2 2.2
2019-Sep-12 08:20N 76°21' E 016°27'513.8
2019-Sep-12 08:00N 76°18' E 016°12'42156.3 060 / 37994.0 3.2 1.7 2.4
2019-Sep-12 07:59N 76°22' E 016°17'4 7.1
2019-Sep-12 07:30N 76°25' E 016°07'3 6.1
2019-Sep-12 07:00N 76°24' E 015°54'516.5 060 / 33994.3 3.9 1.8 2.8
2019-Sep-12 06:41N 76°29' E 015°52'3 8.3
2019-Sep-12 06:20N 76°31' E 015°44'3 8.3
2019-Sep-12 06:00N 76°33' E 015°36'3283.0
2019-Sep-12 06:00N 76°30' E 015°36'714.7 070 / 47993.7 3.8 0.9 2.7
2019-Sep-12 05:30N 76°37' E 015°26'4 8.3
2019-Sep-12 05:00N 76°40' E 015°15'41113.5
2019-Sep-12 05:00N 76°36' E 015°12'816.2 070 / 33994.9 5.8 1.9 2.6
2019-Sep-12 04:30N 76°44' E 015°05'4 7.3
2019-Sep-12 04:00N 76°47' E 014°56'5317.2
2019-Sep-12 04:00N 76°42' E 014°54'918.4 060 / 27995.7 4.7 1.7 2.7
2019-Sep-12 03:30N 76°51' E 014°43'5 9.1
2019-Sep-12 03:00N 76°54' E 014°30'059.8
2019-Sep-12 03:00N 76°54' E 014°30'5 9.4 080 / 43995.3 5.2 1.0 3.3
2019-Sep-12 02:30N 76°58' E 014°18'5 9.4
2019-Sep-12 02:00N 77°02' E 014°07'2188.0
2019-Sep-12 02:00N 77°00' E 014°06'613.0 070 / 21996.6 6.1 1.2 3.1
2019-Sep-12 01:30N 77°06' E 013°55'5 9.7
2019-Sep-12 01:00N 77°10' E 013°43'42414.2
2019-Sep-12 01:00N 77°06' E 013°42'917.2 060 / 23997.9 5.4 0.7 3.5
2019-Sep-12 00:30N 77°14' E 013°32'510.2
2019-Sep-12 00:00N 77°19' E 013°22'1123.4
2019-Sep-12 00:00N 77°18' E 013°18'611.5 040 / 14999.8 4.0 0.2 3.5
2019-Sep-11 23:30N 77°24' E 013°17'1 2.4
2019-Sep-11 23:00N 77°24' E 013°12'52370.5 070 / 141001.0 3.9 0.5 3.4
2019-Sep-11 22:59N 77°29' E 013°13'5 9.9
2019-Sep-11 22:30N 77°33' E 013°09'510.1
2019-Sep-11 22:00N 77°38' E 013°05'3169.9
2019-Sep-11 22:00N 77°36' E 013°00'714.2 090 / 191002.0 3.7 0.4 3.6
2019-Sep-11 21:30N 77°43' E 013°01'4 8.9
2019-Sep-11 21:00N 77°47' E 013°01'5444.3
2019-Sep-11 21:00N 77°42' E 013°00'1020.2 070 / 61002.7 3.3 0.1 3.6
2019-Sep-11 20:30N 77°52' E 013°00'5 9.2
2019-Sep-11 20:00N 77°57' E 012°60'31448.7
2019-Sep-11 20:00N 77°54' E 012°54'714.6 070 / 81003.1 3.6-0.2 3.9
2019-Sep-11 19:30N 78°01' E 013°03'5 9.0
2019-Sep-11 19:00N 78°05' E 013°14'52177.7
2019-Sep-11 19:00N 78°00' E 013°12'815.8 090 / 141004.1 3.6 0.1 3.8
2019-Sep-11 18:28N 78°07' E 013°33'3 6.7
2019-Sep-11 18:00N 78°06' E 013°48'31493.5 060 / 41004.7 3.9-0.8 4.7
2019-Sep-11 17:59N 78°09' E 013°53'5 9.4
2019-Sep-11 17:30N 78°10' E 014°15'5 9.6
2019-Sep-11 17:00N 78°12' E 014°37'63511.0
2019-Sep-11 17:00N 78°06' E 014°36'918.0 150 / 41005.0 3.7-0.6 4.7
2019-Sep-11 16:29N 78°14' E 014°58'4 9.0
2019-Sep-11 16:00N 78°16' E 015°16'4456.0
2019-Sep-11 16:00N 78°12' E 015°12'611.3 340 / 21005.2 3.9-0.5 4.4
2019-Sep-11 15:29N 78°15' E 015°36'0 0.8
2019-Sep-11 15:00N 78°14' E 015°36'2368.4
2019-Sep-11 15:00N 78°12' E 015°36'3 5.1 310 / 41005.2 4.2-0.7 4.8
2019-Sep-11 14:30N 78°14' E 015°34'3 5.1
2019-Sep-11 14:00N 78°12' E 015°30'3116.1 240 / 41005.1 4.8-0.8 4.9
2019-Sep-11 13:58N 78°15' E 015°33'0 0.0
2019-Sep-11 13:28N 78°15' E 015°33'3 5.5
2019-Sep-11 13:00N 78°12' E 015°30'3114.7 270 / 41004.8 4.5-0.1 4.8
2019-Sep-11 12:58N 78°15' E 015°33'0 0.0
2019-Sep-11 12:28N 78°15' E 015°33'3 5.5
2019-Sep-11 12:00N 78°12' E 015°30'3112.0 260 / 101004.7 3.7-0.2 4.7
2019-Sep-11 11:58N 78°15' E 015°33'0 0.0
2019-Sep-11 11:28N 78°15' E 015°33'3 5.6
2019-Sep-11 11:00N 78°12' E 015°30'3110.7 270 / 141004.2 3.7 0.4 4.8
2019-Sep-11 10:58N 78°15' E 015°33'0 0.0
2019-Sep-11 10:28N 78°15' E 015°33'3 5.6
2019-Sep-11 10:00N 78°12' E 015°30'3108.2 270 / 121004.0 3.7 1.1 4.8
2019-Sep-11 09:58N 78°15' E 015°33'0 0.0
2019-Sep-11 09:28N 78°15' E 015°33'3 5.6
2019-Sep-11 09:00N 78°12' E 015°30'3105.8 270 / 121003.5 3.5 0.5 4.9
2019-Sep-11 08:58N 78°15' E 015°33'0 0.0
2019-Sep-11 08:28N 78°15' E 015°33'3 5.6
2019-Sep-11 08:00N 78°12' E 015°30'3103.5 260 / 101002.7 3.8 0.7 4.8
2019-Sep-11 07:58N 78°15' E 015°33'0 0.0
2019-Sep-11 07:28N 78°15' E 015°33'3 5.6
2019-Sep-11 07:00N 78°12' E 015°30'3102.4 260 / 161002.2 3.7 1.5 4.8
2019-Sep-11 06:58N 78°15' E 015°33'0 0.0
2019-Sep-11 06:28N 78°15' E 015°33'3 5.6
2019-Sep-11 06:00N 78°12' E 015°30'3101.3 220 / 141001.3 4.3 1.2 4.8
2019-Sep-11 05:58N 78°15' E 015°33'0 0.0
2019-Sep-11 05:28N 78°15' E 015°33'3 5.6
2019-Sep-11 05:00N 78°12' E 015°30'398.2 200 / 101000.2 7.2 0.2 4.9
2019-Sep-11 04:58N 78°15' E 015°33'0 0.0
2019-Sep-11 04:28N 78°15' E 015°33'3 5.6
2019-Sep-11 04:00N 78°12' E 015°30'397.2 140 / 14999.7 7.7 0.9 5.0
2019-Sep-11 03:58N 78°15' E 015°33'0 0.0
2019-Sep-11 03:28N 78°15' E 015°33'3 5.6
2019-Sep-11 03:00N 78°12' E 015°30'396.2 140 / 4999.2 8.0-0.3 4.9
2019-Sep-11 02:58N 78°15' E 015°33'0 0.0
2019-Sep-11 02:28N 78°15' E 015°33'3 5.6
2019-Sep-11 02:00N 78°12' E 015°30'394.3 170 / 16999.0 8.5-0.1 4.9
2019-Sep-11 01:58N 78°15' E 015°33'0 0.0
2019-Sep-11 01:28N 78°15' E 015°33'3 5.6
2019-Sep-11 01:00N 78°12' E 015°30'392.5 140 / 14998.8 9.8 1.2 5.0
2019-Sep-11 00:58N 78°15' E 015°33'0 0.0
2019-Sep-11 00:28N 78°15' E 015°33'3 5.6
2019-Sep-11 00:00N 78°12' E 015°30'391.6 140 / 14998.7 8.6 2.0 5.0
2019-Sep-10 23:58N 78°15' E 015°33'0 0.0
2019-Sep-10 23:28N 78°15' E 015°33'3 5.6
2019-Sep-10 23:00N 78°12' E 015°30'389.8 120 / 14998.7 7.5 2.1 4.9
2019-Sep-10 22:58N 78°15' E 015°33'0 0.0
2019-Sep-10 22:28N 78°15' E 015°33'3 5.6
2019-Sep-10 22:00N 78°12' E 015°30'388.2 110 / 14999.1 7.5 2.2 4.9
2019-Sep-10 21:58N 78°15' E 015°33'0 0.0
2019-Sep-10 21:28N 78°15' E 015°33'3 5.6
2019-Sep-10 21:00N 78°12' E 015°30'387.4 110 / 12999.7 7.2 1.7 4.9
2019-Sep-10 20:58N 78°15' E 015°33'0 0.0
2019-Sep-10 20:28N 78°15' E 015°33'3 5.6
2019-Sep-10 20:00N 78°12' E 015°30'385.8 120 / 141000.5 7.4 1.5 4.9
2019-Sep-10 19:58N 78°15' E 015°33'0 0.0
2019-Sep-10 19:28N 78°15' E 015°33'3 5.6
2019-Sep-10 19:00N 78°12' E 015°30'385.0 120 / 121001.0 7.0 1.0 4.9
2019-Sep-10 18:58N 78°15' E 015°33'0 0.0
2019-Sep-10 18:28N 78°15' E 015°33'3 5.6
2019-Sep-10 18:00N 78°12' E 015°30'383.5 120 / 141001.3 7.4 0.3 4.9
2019-Sep-10 17:58N 78°15' E 015°33'0 0.0
2019-Sep-10 17:28N 78°15' E 015°33'3 5.7
2019-Sep-10 17:00N 78°12' E 015°30'382.8 140 / 161002.0 6.7-0.1 4.9
2019-Sep-10 16:58N 78°15' E 015°33'0 0.0
2019-Sep-10 16:28N 78°15' E 015°33'3 5.7
2019-Sep-10 16:00N 78°12' E 015°30'381.4 120 / 141003.1 6.2 0.6 5.0
2019-Sep-10 15:58N 78°15' E 015°33'0 0.0
2019-Sep-10 15:28N 78°15' E 015°33'0 0.0
2019-Sep-10 15:01N 78°15' E 015°33'3156.1
2019-Sep-10 15:00N 78°12' E 015°30'3 5.5 120 / 161003.8 6.4 0.5 5.0
2019-Sep-10 14:31N 78°15' E 015°33'0 0.0
2019-Sep-10 14:01N 78°15' E 015°33'3158.7
2019-Sep-10 14:00N 78°12' E 015°30'3 5.4 120 / 141005.0 5.9 0.8 4.9
2019-Sep-10 13:30N 78°15' E 015°33'0 0.4
2019-Sep-10 13:00N 78°15' E 015°34'1 1.7
2019-Sep-10 12:28N 78°14' E 015°36'2 3.8
2019-Sep-10 12:00N 78°12' E 015°36'255.2 130 / 61006.1 6.9 0.8 4.8
2019-Sep-10 11:58N 78°14' E 015°36'0 0.0
2019-Sep-10 11:28N 78°14' E 015°36'0 0.0
2019-Sep-10 10:58N 78°14' E 015°36'0 0.0
2019-Sep-10 10:28N 78°14' E 015°36'2 3.8
2019-Sep-10 10:00N 78°12' E 015°36'253.8 120 / 161006.7 5.5-0.6 4.8
2019-Sep-10 09:58N 78°14' E 015°36'0 0.0
2019-Sep-10 09:28N 78°14' E 015°36'0 0.0
2019-Sep-10 09:01N 78°14' E 015°36'2104.1
2019-Sep-10 09:00N 78°12' E 015°36'2 3.7 130 / 171006.9 5.3-1.2 4.8
2019-Sep-10 08:31N 78°14' E 015°36'0 0.0
2019-Sep-10 08:00N 78°14' E 015°36'2107.7
2019-Sep-10 08:00N 78°12' E 015°36'2 3.6 140 / 211007.2 5.0-1.3 4.8
2019-Sep-10 07:30N 78°14' E 015°36'0 0.5
2019-Sep-10 07:00N 78°14' E 015°36'2181.7
2019-Sep-10 07:00N 78°12' E 015°30'3 6.7 140 / 251007.7 4.8-1.4 4.8
2019-Sep-10 06:30N 78°15' E 015°35'2 5.0
2019-Sep-10 06:00N 78°16' E 015°24'4378.8
2019-Sep-10 06:00N 78°12' E 015°24'4 7.0 200 / 191008.3 5.2-1.0 4.7
2019-Sep-10 05:28N 78°15' E 015°16'4 8.2
2019-Sep-10 05:00N 78°12' E 015°06'391.7 210 / 21009.1 4.2 0.7 4.7
2019-Sep-10 04:58N 78°14' E 015°11'1 2.4
2019-Sep-10 04:28N 78°13' E 015°08'1 2.5
2019-Sep-10 04:00N 78°13' E 015°05'199.1
2019-Sep-10 04:00N 78°12' E 015°00'1 1.9 330 / 41009.6 4.2-0.0 4.8
2019-Sep-10 03:30N 78°11' E 014°58'2 3.6
2019-Sep-10 03:00N 78°13' E 015°01'1534.7
2019-Sep-10 03:00N 78°12' E 015°00'3 6.0 130 / 61010.7 3.6-0.4 4.6
2019-Sep-10 02:30N 78°15' E 015°06'2 3.9
2019-Sep-10 02:00N 78°16' E 015°10'51367.0
2019-Sep-10 02:00N 78°12' E 015°06'612.9 080 / 171011.3 4.2-1.9 4.5
2019-Sep-10 01:30N 78°18' E 015°15'2 4.1
2019-Sep-10 01:00N 78°20' E 015°20'2133.4
2019-Sep-10 01:00N 78°18' E 015°18'4 8.1 080 / 141012.8 3.2-1.9 4.4
2019-Sep-10 00:30N 78°22' E 015°26'2 4.3
2019-Sep-10 00:00N 78°23' E 015°33'51580.3
2019-Sep-10 00:00N 78°18' E 015°30'714.4 100 / 291013.7 2.1-2.8 4.6
2019-Sep-09 23:30N 78°25' E 015°41'2 4.2
2019-Sep-09 23:00N 78°26' E 015°49'21276.4
2019-Sep-09 23:00N 78°24' E 015°48'4 7.7 110 / 251014.8 2.2-3.0 4.7
2019-Sep-09 22:30N 78°27' E 015°56'2 4.1
2019-Sep-09 22:00N 78°29' E 016°04'5538.2
2019-Sep-09 22:00N 78°24' E 016°00'714.1 220 / 171015.4 2.6-3.2 4.9
2019-Sep-09 21:30N 78°31' E 016°11'2 4.3
2019-Sep-09 21:00N 78°32' E 016°17'2175.6
2019-Sep-09 21:00N 78°30' E 016°12'5 9.5 180 / 41016.2 1.8-4.2 4.8
2019-Sep-09 20:30N 78°34' E 016°24'2 4.5
2019-Sep-09 20:00N 78°36' E 016°30'0148.1 290 / 21016.5 1.4-4.9 5.0
2019-Sep-09 19:59N 78°36' E 016°31'3 5.7
2019-Sep-09 19:26N 78°39' E 016°41'2 5.6
2019-Sep-09 19:00N 78°40' E 016°52'1 2.3
2019-Sep-09 18:30N 78°39' E 016°47'5 9.2
2019-Sep-09 18:00N 78°39' E 016°24'3369.8
2019-Sep-09 18:00N 78°36' E 016°18'3 7.0 270 / 21016.8 1.0-4.8 4.8
2019-Sep-09 17:30N 78°39' E 016°23'0 0.0
2019-Sep-09 17:00N 78°39' E 016°23'3398.5
2019-Sep-09 17:00N 78°36' E 016°18'3 7.0 290 / 21016.8 1.3-5.2 4.8
2019-Sep-09 16:30N 78°39' E 016°23'0 0.0
2019-Sep-09 16:00N 78°39' E 016°23'3411.8
2019-Sep-09 16:00N 78°36' E 016°18'3 7.0 020 / 41016.8 1.1-5.4 4.8
2019-Sep-09 15:30N 78°39' E 016°23'0 0.0
2019-Sep-09 15:00N 78°39' E 016°23'3441.2
2019-Sep-09 15:00N 78°36' E 016°18'3 7.0 010 / 21016.7 1.5-5.3 4.7
2019-Sep-09 14:30N 78°39' E 016°23'3 6.5
2019-Sep-09 14:00N 78°36' E 016°24'143.1 030 / 191016.7 0.5-5.2 4.7
2019-Sep-09 13:58N 78°37' E 016°26'4 9.0
2019-Sep-09 13:29N 78°33' E 016°18'4 8.8
2019-Sep-09 13:00N 78°29' E 016°06'6344.8
2019-Sep-09 13:00N 78°24' E 016°00'3 5.4 060 / 171016.0 1.6-5.1 4.8
2019-Sep-09 12:31N 78°26' E 015°51'5 9.2
2019-Sep-09 12:00N 78°22' E 015°37'4796.7
2019-Sep-09 12:00N 78°18' E 015°36'3 5.2 060 / 191015.0 2.6-4.8 4.7
2019-Sep-09 11:30N 78°18' E 015°24'510.2
2019-Sep-09 11:00N 78°14' E 015°09'2852.8
2019-Sep-09 11:00N 78°12' E 015°06'3 5.4 200 / 41013.7 3.5-3.0 4.6
2019-Sep-09 10:30N 78°10' E 014°58'3 5.0
2019-Sep-09 10:00N 78°07' E 014°55'0 0.0
2019-Sep-09 09:15N 78°07' E 014°55'0 0.0
2019-Sep-09 08:39N 78°07' E 014°55'0 0.0
2019-Sep-09 08:24N 78°07' E 014°55'0 0.0
2019-Sep-09 07:36N 78°08' E 014°55'0 0.0
2019-Sep-09 07:27N 78°08' E 014°55'0 0.0
2019-Sep-09 06:54N 78°08' E 014°55'0 0.0
2019-Sep-09 06:30N 78°08' E 014°55'1 0.1
2019-Sep-09 02:00N 78°07' E 014°56'2 5.0
2019-Sep-09 01:30N 78°09' E 014°54'2 4.9
2019-Sep-09 01:01N 78°12' E 014°56'6340.7
2019-Sep-09 01:00N 78°06' E 014°54'714.9 030 / 161009.5 3.4-1.6 4.8
2019-Sep-09 00:30N 78°13' E 014°59'1 3.0
2019-Sep-09 00:01N 78°15' E 015°02'3158.9
2019-Sep-09 00:00N 78°12' E 015°00'4 8.5 050 / 161009.6 2.4-1.2 4.8
2019-Sep-08 23:30N 78°16' E 015°04'2 3.4
2019-Sep-08 23:00N 78°18' E 015°06'2 3.5
2019-Sep-08 22:30N 78°20' E 015°08'2 3.6
2019-Sep-08 22:00N 78°21' E 015°11'3236.7
2019-Sep-08 22:00N 78°18' E 015°06'3 6.9 070 / 141010.0 2.3-0.9 4.5
2019-Sep-08 21:29N 78°21' E 015°15'2 3.1
2019-Sep-08 21:00N 78°20' E 015°12'1 2.5
2019-Sep-08 20:30N 78°21' E 015°15'1 1.4
2019-Sep-08 20:00N 78°20' E 015°15'2144.9
2019-Sep-08 20:00N 78°18' E 015°12'4 8.0 070 / 81010.1 2.5-1.3 4.5
2019-Sep-08 19:30N 78°17' E 014°53'510.7
2019-Sep-08 19:00N 78°15' E 014°30'3234.7
2019-Sep-08 19:00N 78°12' E 014°24'4 7.6 040 / 141009.8 3.3-1.2 4.8
2019-Sep-08 18:30N 78°13' E 014°06'510.7
2019-Sep-08 18:00N 78°10' E 013°42'4789.5
2019-Sep-08 18:00N 78°06' E 013°42'611.9 080 / 171009.2 3.0-0.9 4.8
2019-Sep-08 17:30N 78°10' E 013°19'510.5
2019-Sep-08 17:00N 78°09' E 012°54'3384.0
2019-Sep-08 17:00N 78°06' E 012°54'612.0 110 / 101009.4 3.2-0.2 3.8
2019-Sep-08 16:30N 78°09' E 012°29'510.0
2019-Sep-08 16:00N 78°09' E 012°05'31005.3
2019-Sep-08 16:00N 78°06' E 012°00'5 9.8 120 / 141009.4 3.7 0.3 4.4
2019-Sep-08 15:30N 78°09' E 011°41'4 8.4
2019-Sep-08 15:00N 78°09' E 011°20'3294.1
2019-Sep-08 15:00N 78°06' E 011°18'4 9.1 130 / 141009.6 3.8-0.0 4.6
2019-Sep-08 14:30N 78°10' E 011°05'510.2
2019-Sep-08 14:00N 78°10' E 010°40'4453.5
2019-Sep-08 14:00N 78°06' E 010°36'511.0 120 / 101009.6 4.0-1.6 5.3
2019-Sep-08 13:30N 78°10' E 010°19'510.8
2019-Sep-08 13:00N 78°10' E 009°53'4537.8
2019-Sep-08 13:00N 78°06' E 009°48'510.4 140 / 101009.8 4.3-1.7 5.3
2019-Sep-08 12:30N 78°11' E 009°42'2 3.4
2019-Sep-08 12:00N 78°12' E 009°45'1140.5
2019-Sep-08 12:00N 78°12' E 009°42'2 3.2 160 / 121010.1 4.6-1.4 5.4
2019-Sep-08 11:30N 78°13' E 009°46'0 0.2
2019-Sep-08 11:00N 78°13' E 009°46'0 0.2
2019-Sep-08 10:30N 78°13' E 009°45'1 2.3
2019-Sep-08 10:00N 78°12' E 009°44'164.4
2019-Sep-08 10:00N 78°12' E 009°42'1 2.8 180 / 81010.8 4.0-2.8 5.4
2019-Sep-08 09:30N 78°11' E 009°42'510.5
2019-Sep-08 09:00N 78°06' E 009°34'6350.2
2019-Sep-08 09:00N 78°00' E 009°30'0 0.0 200 / 81010.7 4.7-2.2 5.7
2019-Sep-08 08:00N 78°00' E 009°30'1 1.7 210 / 101011.0 4.7-1.5 6.8
2019-Sep-08 07:39N 77°60' E 009°32'2 4.6
2019-Sep-08 07:19N 78°01' E 009°29'2 4.8
2019-Sep-08 07:00N 78°00' E 009°24'2 4.8 210 / 141011.1 4.7-2.7 5.9
2019-Sep-08 06:39N 78°01' E 009°29'1 1.9
2019-Sep-08 06:00N 78°00' E 009°30'7 7.1 210 / 101011.2 4.5-2.4 5.7
2019-Sep-08 05:00N 77°54' E 009°48'553.2 210 / 141011.2 4.5-2.4 5.4
2019-Sep-08 04:54N 77°59' E 009°59'410.5
2019-Sep-08 04:30N 77°57' E 010°17'510.3
2019-Sep-08 04:00N 77°55' E 010°39'3 6.5
2019-Sep-08 03:30N 77°53' E 010°53'2 4.5
2019-Sep-08 03:00N 77°55' E 010°59'2313.8
2019-Sep-08 03:00N 77°54' E 010°54'1 2.3 260 / 101012.0 4.2-3.6 5.2
2019-Sep-08 02:30N 77°54' E 010°49'0 0.2
2019-Sep-08 02:00N 77°54' E 010°49'026.8
2019-Sep-08 02:00N 77°54' E 010°48'1 2.6 250 / 141012.1 4.4-3.4 5.4
2019-Sep-08 01:30N 77°54' E 010°54'2 3.4
2019-Sep-08 01:00N 77°53' E 011°01'5460.4
2019-Sep-08 01:00N 77°48' E 011°00'510.6 260 / 161012.1 4.5-4.0 5.3
2019-Sep-08 00:30N 77°51' E 011°21'5 9.9
2019-Sep-08 00:00N 77°48' E 011°40'1353.0
2019-Sep-08 00:00N 77°48' E 011°36'611.5 260 / 171012.1 4.5-4.5 5.3
2019-Sep-07 23:30N 77°45' E 011°59'5 9.9
2019-Sep-07 23:00N 77°42' E 012°18'1153.8
2019-Sep-07 23:00N 77°42' E 012°12'611.9 260 / 171012.1 4.2-3.8 4.0
2019-Sep-07 22:30N 77°39' E 012°36'5 9.8
2019-Sep-07 22:00N 77°36' E 012°54'023.2
2019-Sep-07 22:00N 77°36' E 012°54'5 9.7 260 / 171012.0 4.1-3.6 3.8
2019-Sep-07 21:30N 77°33' E 013°12'5 9.1
2019-Sep-07 21:00N 77°30' E 013°28'175.8
2019-Sep-07 21:00N 77°30' E 013°24'2 4.2 250 / 171012.2 4.2-2.5 3.5
2019-Sep-07 20:30N 77°31' E 013°33'0 0.9
2019-Sep-07 20:00N 77°31' E 013°31'180.2
2019-Sep-07 20:00N 77°30' E 013°30'1 1.5 240 / 191012.0 3.4-2.2 3.7
2019-Sep-07 19:30N 77°31' E 013°32'1 2.6
2019-Sep-07 19:00N 77°30' E 013°29'6406.3
2019-Sep-07 19:00N 77°24' E 013°24'4 7.3 250 / 121012.1 3.6-2.5 3.3
2019-Sep-07 18:30N 77°28' E 013°25'611.1
2019-Sep-07 18:00N 77°22' E 013°16'4322.1
2019-Sep-07 18:00N 77°18' E 013°12'1 2.5 240 / 141012.1 3.5-2.3 3.4
2019-Sep-07 17:29N 77°17' E 013°09'511.1
2019-Sep-07 17:00N 77°12' E 013°00'6439.5
2019-Sep-07 17:00N 77°06' E 013°00'2 3.8 240 / 161012.6 3.7-1.9 3.6
2019-Sep-07 16:30N 77°07' E 012°52'610.9
2019-Sep-07 16:00N 77°01' E 012°44'4 7.9
2019-Sep-07 15:26N 76°57' E 012°38'1 2.5
2019-Sep-07 15:00N 76°56' E 012°41'3458.9
2019-Sep-07 15:00N 76°54' E 012°36'3 5.2 240 / 17861.0 4.5-4.8 4.9
2019-Sep-07 14:30N 76°56' E 012°43'3 5.0
2019-Sep-07 14:00N 76°54' E 012°36'313.4 250 / 161012.6 4.5-6.7 5.1
2019-Sep-07 13:48N 76°57' E 012°37'0 0.3
2019-Sep-07 13:29N 76°57' E 012°36'1 1.2
2019-Sep-07 13:00N 76°56' E 012°34'3307.8
2019-Sep-07 13:00N 76°54' E 012°30'2 3.6 280 / 141012.9 4.3-5.2 5.0
2019-Sep-07 12:30N 76°56' E 012°27'918.0
2019-Sep-07 12:00N 76°48' E 012°06'558.4 280 / 161012.7 4.4-3.7 7.2
2019-Sep-07 11:54N 76°53' E 012°08'1415.6
2019-Sep-07 11:00N 76°42' E 011°30'1010.3 280 / 121012.7 4.5-5.6 7.0
2019-Sep-07 10:00N 76°36' E 010°54'1111.5 240 / 141012.3 4.3-6.3 6.5
2019-Sep-07 09:00N 76°30' E 010°12'7 7.0 300 / 41012.2 2.5-3.7 6.8
2019-Sep-07 08:00N 76°30' E 009°42'1 1.4 310 / 121011.8 3.5-3.8 6.7
2019-Sep-07 07:00N 76°30' E 009°36'   310 / 101011.3 4.4-5.9 6.7
Track history (hours):
 
Tides and Currents Weather Stations Pressure Air Temp Water Temp Dewpoint Dewpoint Depression Visibility Wind Speed Wind Dir Waves Ship Positions

Oceanographic research ship Johan Hjort (Norway)

Detailed information on ship capabilities available from University of Delaware's Ocean Information Center and ARCUS's ALIAS (Arctic Logistics Information and Support) project.

Last reported at 2019-Sep-17 07:00 UTC. Time now 2019-Sep-22 01:31 UTC.
Position N 77°30' E 037°30'.

MMSI: 257139000.

Wind from 040 at 25 knots

Barometer 1014.8 mb
Air temperature 0.2 ° C
Dewpoint -2.7 ° C
Water temperature 2.2 ° C

Date/timePositionNaut miles runAvg speedWind from/ knotsBaromVisibWave heightAir tempDewpointWater temp
2019-Sep-17 07:00N 77°30' E 037°30'4 3.9 040 / 251014.8 0.2-2.7 2.2
2019-Sep-17 06:00N 77°30' E 037°48'6 6.1 040 / 271014.7 0.1-2.5 2.3
2019-Sep-17 05:00N 77°24' E 037°54'6 6.0 040 / 271014.6 0.2-1.9 2.2
2019-Sep-17 04:00N 77°18' E 037°54'5 5.3 040 / 271014.3 0.4-1.7 2.3
2019-Sep-17 03:00N 77°18' E 037°30'7 6.6 040 / 291014.2 1.0-1.8 2.3
2019-Sep-17 02:00N 77°18' E 037°00'7 6.6 040 / 291014.7 1.3-1.7 2.1
2019-Sep-17 01:00N 77°18' E 036°30'8 7.9 040 / 311015.0 1.5-1.0 2.3
2019-Sep-17 00:00N 77°18' E 035°54'3 2.6 050 / 291015.3 2.0-1.0 2.2
2019-Sep-16 23:00N 77°18' E 035°42'5 5.3 050 / 251016.0 1.9-0.9 2.3
2019-Sep-16 22:00N 77°18' E 035°18'8 7.9 050 / 291015.5 1.8-0.7 2.3
2019-Sep-16 21:00N 77°18' E 034°42'8 7.9 050 / 271015.7 2.1-0.4 2.5
2019-Sep-16 20:00N 77°18' E 034°06'8 7.9 050 / 251016.0 1.7-0.7 2.6
2019-Sep-16 19:00N 77°18' E 033°30'8 7.9 060 / 271016.1 2.3-1.3 2.8
2019-Sep-16 18:00N 77°18' E 032°54'8 7.9 050 / 291015.8 1.8-0.1 3.1
2019-Sep-16 17:00N 77°18' E 032°18'8 7.9 050 / 311015.7 2.1-0.3 3.7
2019-Sep-16 16:00N 77°18' E 031°42'16 7.9 050 / 311015.7 2.4-0.2 4.1
2019-Sep-16 14:00N 77°18' E 030°30'8 7.9 040 / 291015.9 2.3-0.2 3.6
2019-Sep-16 13:00N 77°18' E 029°54'9 9.2 040 / 271016.3 2.0-0.3 4.2
2019-Sep-16 12:00N 77°18' E 029°12'8 7.9 040 / 271016.7 1.3-0.9 2.0
2019-Sep-16 11:00N 77°18' E 028°36'8 7.9 040 / 251016.7 1.5-1.4 2.9
2019-Sep-16 10:00N 77°18' E 028°00'40 5.7 040 / 251016.7 1.0-1.2 1.0
2019-Sep-16 03:00N 77°18' E 025°00'19 6.5 060 / 231015.1 1.5-1.2 1.6
2019-Sep-16 00:00N 77°12' E 023°36'9 9.0 070 / 211013.2 1.5 0.4 1.4
2019-Sep-15 23:00N 77°06' E 023°06'9 9.0 060 / 211012.2 2.1 1.1 1.1
2019-Sep-15 22:00N 77°00' E 022°36'8 8.1 030 / 191011.2 1.9 0.9 1.1
2019-Sep-15 21:00N 76°54' E 022°12'20 5.1 040 / 191011.0 1.1 0.1 1.4
2019-Sep-15 17:00N 76°54' E 023°42'0 0.0 080 / 141010.3 1.8 0.6 1.8
2019-Sep-15 16:00N 76°54' E 023°42'3 2.7 090 / 141010.1 2.6 1.3 1.5
2019-Sep-15 15:00N 76°54' E 023°54'8 8.2 100 / 121009.7 2.5 1.0 1.9
2019-Sep-15 14:00N 76°54' E 024°30'7 6.8 120 / 101009.5 3.0 1.5 1.9
2019-Sep-15 13:00N 76°54' E 025°00'1 1.4 100 / 121009.3 3.0 1.2 1.9
2019-Sep-15 12:00N 76°54' E 025°06'7 6.6 110 / 171008.7 3.1 1.1 1.9
2019-Sep-15 11:00N 77°00' E 025°18'3 2.7 120 / 161008.2 3.2 1.1 1.9
2019-Sep-15 10:00N 77°00' E 025°30'38 5.4 120 / 141007.8 3.0 0.8 1.3
2019-Sep-15 03:00N 77°00' E 028°18'7 6.7 130 / 171005.3 4.0 2.1 1.0
2019-Sep-15 02:00N 77°00' E 028°48'9 9.4 130 / 161005.0 5.0 3.1 4.6
2019-Sep-15 01:00N 77°00' E 029°30'9 9.4 140 / 141004.8 5.4 3.4 5.2
2019-Sep-15 00:00N 77°00' E 030°12'0 0.0 160 / 141004.7 5.2 2.6 4.9
2019-Sep-14 23:00N 77°00' E 030°12'0 0.0 170 / 171004.2 4.9 3.0 5.0
2019-Sep-14 22:00N 77°00' E 030°12'0 0.0 170 / 191003.1 5.7 3.6 4.7
2019-Sep-14 21:00N 77°00' E 030°12'0 0.0 200 / 141002.2 5.0 3.4 4.8
2019-Sep-14 20:00N 77°00' E 030°12'3 2.7 120 / 161001.2 4.9 3.7 4.9
2019-Sep-14 19:00N 77°00' E 030°24'7 6.7 110 / 251000.7 4.7 3.4 4.8
2019-Sep-14 18:00N 77°00' E 030°54'9 9.4 110 / 291000.7 4.7 3.3 4.5
2019-Sep-14 17:00N 77°00' E 031°36'1110.8 110 / 291001.0 4.7 3.2 4.0
2019-Sep-14 16:00N 77°00' E 032°24'5 5.4 100 / 291001.7 5.0 3.5 3.8
2019-Sep-14 15:00N 77°00' E 032°48'1 1.3 100 / 271002.3 4.4 3.1 3.1
2019-Sep-14 14:00N 77°00' E 032°54'1 1.3 100 / 311002.0 3.8 2.4 3.0
2019-Sep-14 13:00N 77°00' E 032°48'5 5.4 100 / 291002.7 6.1 3.2 2.9
2019-Sep-14 12:00N 77°00' E 033°12'9 9.4 100 / 291002.8 6.0 2.4 2.9
2019-Sep-14 11:00N 77°00' E 033°54'1110.8 100 / 291003.2 6.2 2.9 2.9
2019-Sep-14 10:00N 77°00' E 034°42'9 9.4 100 / 271003.8 5.6 2.1 2.6
2019-Sep-14 09:00N 77°00' E 035°24'5 5.4 100 / 271004.3 4.5 2.1 2.4
2019-Sep-14 08:00N 77°00' E 035°48'1 1.3 100 / 291004.5 3.7 1.7 2.5
2019-Sep-14 07:00N 77°00' E 035°54'0 0.0 100 / 271004.3 3.7 1.5 2.4
2019-Sep-14 06:00N 77°00' E 035°54'5 5.4 100 / 271004.3 6.2 2.9 2.6
2019-Sep-14 05:00N 77°00' E 036°18'1111.2 110 / 271004.6 4.9 2.2 2.4
2019-Sep-14 04:00N 76°54' E 037°00'4 4.1 100 / 271004.7 5.7 2.7 2.4
2019-Sep-14 03:00N 76°54' E 037°18'4 4.1 100 / 291005.0 3.8 1.7 2.4
2019-Sep-14 02:00N 76°54' E 037°00'7 6.8 110 / 291005.0 4.2 2.0 2.5
2019-Sep-14 01:00N 76°54' E 037°30'4 4.1 110 / 271005.3 5.0 2.0 2.4
2019-Sep-14 00:00N 76°54' E 037°48'0 0.0 110 / 271005.3 4.9 2.7 2.4
2019-Sep-13 23:00N 76°54' E 037°48'1 1.4 110 / 251005.0 4.1 2.3 2.4
2019-Sep-13 22:00N 76°54' E 037°54'6 6.2 110 / 251004.8 4.0 2.6 2.4
2019-Sep-13 21:00N 76°48' E 037°48'6 6.2 120 / 251004.6 4.4 2.7 2.5
2019-Sep-13 20:00N 76°42' E 037°42'8 8.3 120 / 271003.7 5.0 3.3 2.9
2019-Sep-13 19:00N 76°42' E 037°06'7 6.9 120 / 271003.1 5.0 3.8 3.1
2019-Sep-13 18:00N 76°42' E 036°36'8 8.3 120 / 271002.5 4.9 3.8 3.2
2019-Sep-13 17:00N 76°42' E 036°00'10 9.7 120 / 251001.9 4.7 3.6 2.6
2019-Sep-13 16:00N 76°42' E 035°18'8 8.3 110 / 271001.5 4.5 3.5 2.5
2019-Sep-13 15:00N 76°42' E 034°42'10 9.7 110 / 251000.8 4.3 3.2 2.6
2019-Sep-13 14:00N 76°42' E 034°00'4 4.1 110 / 231000.7 4.2 3.1 2.7
2019-Sep-13 13:00N 76°42' E 033°42'1 1.4 110 / 231000.7 4.1 3.0 2.6
2019-Sep-13 12:00N 76°42' E 033°48'10 9.7 100 / 231000.5 4.1 3.0 2.8
2019-Sep-13 11:00N 76°42' E 033°06'10 9.7 110 / 231000.1 4.2 3.1 3.8
2019-Sep-13 10:00N 76°42' E 032°24'1111.3 110 / 23999.5 4.7 3.7 4.4
2019-Sep-13 09:00N 76°48' E 031°42'8 8.2 110 / 23999.0 5.2 4.1 4.5
2019-Sep-13 08:00N 76°48' E 031°06'1111.3 110 / 25998.3 5.5 4.4 4.6
2019-Sep-13 07:00N 76°42' E 030°24'10 9.7 110 / 25998.0 5.5 4.4 4.9
2019-Sep-13 06:00N 76°42' E 029°42'10 9.7 110 / 23997.5 5.5 4.5 5.3
2019-Sep-13 05:00N 76°42' E 029°00'18 9.0 110 / 21997.5 5.4 4.3 3.9
2019-Sep-13 03:00N 76°42' E 027°42'28 9.4 110 / 19997.0 3.7 2.6 3.1
2019-Sep-13 00:00N 76°48' E 025°42'1010.2 130 / 17996.6 3.0 2.0 1.8
2019-Sep-12 23:00N 76°42' E 025°06'8 8.3 120 / 14995.7 5.0 3.9 1.9
2019-Sep-12 22:00N 76°42' E 024°30'1111.4 110 / 17995.7 4.6 3.6 1.9
2019-Sep-12 21:00N 76°36' E 023°48'8 8.3 120 / 17995.6 4.1 3.1 1.9
2019-Sep-12 20:00N 76°36' E 023°12'6 5.6 120 / 16995.5 3.9 2.9 3.0
2019-Sep-12 19:00N 76°36' E 022°48'3 2.8 120 / 14995.6 4.1 3.1 2.6
2019-Sep-12 18:00N 76°36' E 022°36'8 8.3 120 / 17995.4 3.6 2.6 2.2
2019-Sep-12 17:00N 76°36' E 022°00'8 8.3 120 / 17994.7 4.1 3.1 2.4
2019-Sep-12 16:00N 76°36' E 021°24'1111.5 120 / 17994.8 4.7 3.6 3.0
2019-Sep-12 15:00N 76°30' E 020°42'10 9.8 110 / 17994.5 4.4 3.3 2.5
2019-Sep-12 14:00N 76°30' E 020°00'1211.5 090 / 14994.2 4.4 3.3 4.1
2019-Sep-12 13:00N 76°24' E 019°18'10 9.9 070 / 12994.3 4.7 3.7 4.4
2019-Sep-12 12:00N 76°24' E 018°36'10 9.9 040 / 16994.3 4.9 3.8 4.3
2019-Sep-12 11:00N 76°24' E 017°54'1010.4 030 / 21994.4 4.0 2.9 4.2
2019-Sep-12 10:00N 76°18' E 017°18'9 8.5 020 / 29994.2 3.1 1.9 2.9
2019-Sep-12 09:00N 76°18' E 016°42'5 7.2 040 / 37994.1 2.6 1.2 2.2
2019-Sep-12 08:20N 76°21' E 016°27'513.8
2019-Sep-12 08:00N 76°18' E 016°12'42156.3 060 / 37994.0 3.2 1.7 2.4
2019-Sep-12 07:59N 76°22' E 016°17'4 7.1
2019-Sep-12 07:30N 76°25' E 016°07'3 6.1
2019-Sep-12 07:00N 76°24' E 015°54'516.5 060 / 33994.3 3.9 1.8 2.8
2019-Sep-12 06:41N 76°29' E 015°52'3 8.3
2019-Sep-12 06:20N 76°31' E 015°44'3 8.3
2019-Sep-12 06:00N 76°33' E 015°36'3283.0
2019-Sep-12 06:00N 76°30' E 015°36'714.7 070 / 47993.7 3.8 0.9 2.7
2019-Sep-12 05:30N 76°37' E 015°26'4 8.3
2019-Sep-12 05:00N 76°40' E 015°15'41113.5
2019-Sep-12 05:00N 76°36' E 015°12'816.2 070 / 33994.9 5.8 1.9 2.6
2019-Sep-12 04:30N 76°44' E 015°05'4 7.3
2019-Sep-12 04:00N 76°47' E 014°56'5317.2
2019-Sep-12 04:00N 76°42' E 014°54'918.4 060 / 27995.7 4.7 1.7 2.7
2019-Sep-12 03:30N 76°51' E 014°43'5 9.1
2019-Sep-12 03:00N 76°54' E 014°30'059.8
2019-Sep-12 03:00N 76°54' E 014°30'5 9.4 080 / 43995.3 5.2 1.0 3.3
2019-Sep-12 02:30N 76°58' E 014°18'5 9.4
2019-Sep-12 02:00N 77°02' E 014°07'2188.0
2019-Sep-12 02:00N 77°00' E 014°06'613.0 070 / 21996.6 6.1 1.2 3.1
2019-Sep-12 01:30N 77°06' E 013°55'5 9.7
2019-Sep-12 01:00N 77°10' E 013°43'42414.2
2019-Sep-12 01:00N 77°06' E 013°42'917.2 060 / 23997.9 5.4 0.7 3.5
2019-Sep-12 00:30N 77°14' E 013°32'510.2
2019-Sep-12 00:00N 77°19' E 013°22'1123.4
2019-Sep-12 00:00N 77°18' E 013°18'611.5 040 / 14999.8 4.0 0.2 3.5
2019-Sep-11 23:30N 77°24' E 013°17'1 2.4
2019-Sep-11 23:00N 77°24' E 013°12'52370.5 070 / 141001.0 3.9 0.5 3.4
2019-Sep-11 22:59N 77°29' E 013°13'5 9.9
2019-Sep-11 22:30N 77°33' E 013°09'510.1
2019-Sep-11 22:00N 77°38' E 013°05'3169.9
2019-Sep-11 22:00N 77°36' E 013°00'714.2 090 / 191002.0 3.7 0.4 3.6
2019-Sep-11 21:30N 77°43' E 013°01'4 8.9
2019-Sep-11 21:00N 77°47' E 013°01'5444.3
2019-Sep-11 21:00N 77°42' E 013°00'1020.2 070 / 61002.7 3.3 0.1 3.6
2019-Sep-11 20:30N 77°52' E 013°00'5 9.2
2019-Sep-11 20:00N 77°57' E 012°60'31448.7
2019-Sep-11 20:00N 77°54' E 012°54'714.6 070 / 81003.1 3.6-0.2 3.9
2019-Sep-11 19:30N 78°01' E 013°03'5 9.0
2019-Sep-11 19:00N 78°05' E 013°14'52177.7
2019-Sep-11 19:00N 78°00' E 013°12'815.8 090 / 141004.1 3.6 0.1 3.8
2019-Sep-11 18:28N 78°07' E 013°33'3 6.7
2019-Sep-11 18:00N 78°06' E 013°48'31493.5 060 / 41004.7 3.9-0.8 4.7
2019-Sep-11 17:59N 78°09' E 013°53'5 9.4
2019-Sep-11 17:30N 78°10' E 014°15'5 9.6
2019-Sep-11 17:00N 78°12' E 014°37'63511.0
2019-Sep-11 17:00N 78°06' E 014°36'918.0 150 / 41005.0 3.7-0.6 4.7
2019-Sep-11 16:29N 78°14' E 014°58'4 9.0
2019-Sep-11 16:00N 78°16' E 015°16'4456.0
2019-Sep-11 16:00N 78°12' E 015°12'611.3 340 / 21005.2 3.9-0.5 4.4
2019-Sep-11 15:29N 78°15' E 015°36'0 0.8
2019-Sep-11 15:00N 78°14' E 015°36'2368.4
2019-Sep-11 15:00N 78°12' E 015°36'3 5.1 310 / 41005.2 4.2-0.7 4.8
2019-Sep-11 14:30N 78°14' E 015°34'3 5.1
2019-Sep-11 14:00N 78°12' E 015°30'3116.1 240 / 41005.1 4.8-0.8 4.9
2019-Sep-11 13:58N 78°15' E 015°33'0 0.0
2019-Sep-11 13:28N 78°15' E 015°33'3 5.5
2019-Sep-11 13:00N 78°12' E 015°30'3114.7 270 / 41004.8 4.5-0.1 4.8
2019-Sep-11 12:58N 78°15' E 015°33'0 0.0
2019-Sep-11 12:28N 78°15' E 015°33'3 5.5
2019-Sep-11 12:00N 78°12' E 015°30'3112.0 260 / 101004.7 3.7-0.2 4.7
2019-Sep-11 11:58N 78°15' E 015°33'0 0.0
2019-Sep-11 11:28N 78°15' E 015°33'3 5.6
2019-Sep-11 11:00N 78°12' E 015°30'3110.7 270 / 141004.2 3.7 0.4 4.8
2019-Sep-11 10:58N 78°15' E 015°33'0 0.0
2019-Sep-11 10:28N 78°15' E 015°33'3 5.6
2019-Sep-11 10:00N 78°12' E 015°30'3108.2 270 / 121004.0 3.7 1.1 4.8
2019-Sep-11 09:58N 78°15' E 015°33'0 0.0
2019-Sep-11 09:28N 78°15' E 015°33'3 5.6
2019-Sep-11 09:00N 78°12' E 015°30'3105.8 270 / 121003.5 3.5 0.5 4.9
2019-Sep-11 08:58N 78°15' E 015°33'0 0.0
2019-Sep-11 08:28N 78°15' E 015°33'3 5.6
2019-Sep-11 08:00N 78°12' E 015°30'3103.5 260 / 101002.7 3.8 0.7 4.8
2019-Sep-11 07:58N 78°15' E 015°33'0 0.0
2019-Sep-11 07:28N 78°15' E 015°33'3 5.6
2019-Sep-11 07:00N 78°12' E 015°30'3102.4 260 / 161002.2 3.7 1.5 4.8
2019-Sep-11 06:58N 78°15' E 015°33'0 0.0
2019-Sep-11 06:28N 78°15' E 015°33'3 5.6
2019-Sep-11 06:00N 78°12' E 015°30'3101.3 220 / 141001.3 4.3 1.2 4.8
2019-Sep-11 05:58N 78°15' E 015°33'0 0.0
2019-Sep-11 05:28N 78°15' E 015°33'3 5.6
2019-Sep-11 05:00N 78°12' E 015°30'398.2 200 / 101000.2 7.2 0.2 4.9
2019-Sep-11 04:58N 78°15' E 015°33'0 0.0
2019-Sep-11 04:28N 78°15' E 015°33'3 5.6
2019-Sep-11 04:00N 78°12' E 015°30'397.2 140 / 14999.7 7.7 0.9 5.0
2019-Sep-11 03:58N 78°15' E 015°33'0 0.0
2019-Sep-11 03:28N 78°15' E 015°33'3 5.6
2019-Sep-11 03:00N 78°12' E 015°30'396.2 140 / 4999.2 8.0-0.3 4.9
2019-Sep-11 02:58N 78°15' E 015°33'0 0.0
2019-Sep-11 02:28N 78°15' E 015°33'3 5.6
2019-Sep-11 02:00N 78°12' E 015°30'394.3 170 / 16999.0 8.5-0.1 4.9
2019-Sep-11 01:58N 78°15' E 015°33'0 0.0
2019-Sep-11 01:28N 78°15' E 015°33'3 5.6
2019-Sep-11 01:00N 78°12' E 015°30'392.5 140 / 14998.8 9.8 1.2 5.0
2019-Sep-11 00:58N 78°15' E 015°33'0 0.0
2019-Sep-11 00:28N 78°15' E 015°33'3 5.6
2019-Sep-11 00:00N 78°12' E 015°30'391.6 140 / 14998.7 8.6 2.0 5.0
2019-Sep-10 23:58N 78°15' E 015°33'0 0.0
2019-Sep-10 23:28N 78°15' E 015°33'3 5.6
2019-Sep-10 23:00N 78°12' E 015°30'389.8 120 / 14998.7 7.5 2.1 4.9
2019-Sep-10 22:58N 78°15' E 015°33'0 0.0
2019-Sep-10 22:28N 78°15' E 015°33'3 5.6
2019-Sep-10 22:00N 78°12' E 015°30'388.2 110 / 14999.1 7.5 2.2 4.9
2019-Sep-10 21:58N 78°15' E 015°33'0 0.0
2019-Sep-10 21:28N 78°15' E 015°33'3 5.6
2019-Sep-10 21:00N 78°12' E 015°30'387.4 110 / 12999.7 7.2 1.7 4.9
2019-Sep-10 20:58N 78°15' E 015°33'0 0.0
2019-Sep-10 20:28N 78°15' E 015°33'3 5.6
2019-Sep-10 20:00N 78°12' E 015°30'385.8 120 / 141000.5 7.4 1.5 4.9
2019-Sep-10 19:58N 78°15' E 015°33'0 0.0
2019-Sep-10 19:28N 78°15' E 015°33'3 5.6
2019-Sep-10 19:00N 78°12' E 015°30'385.0 120 / 121001.0 7.0 1.0 4.9
2019-Sep-10 18:58N 78°15' E 015°33'0 0.0
2019-Sep-10 18:28N 78°15' E 015°33'3 5.6
2019-Sep-10 18:00N 78°12' E 015°30'383.5 120 / 141001.3 7.4 0.3 4.9
2019-Sep-10 17:58N 78°15' E 015°33'0 0.0
2019-Sep-10 17:28N 78°15' E 015°33'3 5.7
2019-Sep-10 17:00N 78°12' E 015°30'382.8 140 / 161002.0 6.7-0.1 4.9
2019-Sep-10 16:58N 78°15' E 015°33'0 0.0
2019-Sep-10 16:28N 78°15' E 015°33'3 5.7
2019-Sep-10 16:00N 78°12' E 015°30'381.4 120 / 141003.1 6.2 0.6 5.0
2019-Sep-10 15:58N 78°15' E 015°33'0 0.0
2019-Sep-10 15:28N 78°15' E 015°33'0 0.0
2019-Sep-10 15:01N 78°15' E 015°33'3156.1
2019-Sep-10 15:00N 78°12' E 015°30'3 5.5 120 / 161003.8 6.4 0.5 5.0
2019-Sep-10 14:31N 78°15' E 015°33'0 0.0
2019-Sep-10 14:01N 78°15' E 015°33'3158.7
2019-Sep-10 14:00N 78°12' E 015°30'3 5.4 120 / 141005.0 5.9 0.8 4.9
2019-Sep-10 13:30N 78°15' E 015°33'0 0.4
2019-Sep-10 13:00N 78°15' E 015°34'1 1.7
2019-Sep-10 12:28N 78°14' E 015°36'2 3.8
2019-Sep-10 12:00N 78°12' E 015°36'255.2 130 / 61006.1 6.9 0.8 4.8
2019-Sep-10 11:58N 78°14' E 015°36'0 0.0
2019-Sep-10 11:28N 78°14' E 015°36'0 0.0
2019-Sep-10 10:58N 78°14' E 015°36'0 0.0
2019-Sep-10 10:28N 78°14' E 015°36'2 3.8
2019-Sep-10 10:00N 78°12' E 015°36'253.8 120 / 161006.7 5.5-0.6 4.8
2019-Sep-10 09:58N 78°14' E 015°36'0 0.0
2019-Sep-10 09:28N 78°14' E 015°36'0 0.0
2019-Sep-10 09:01N 78°14' E 015°36'2104.1
2019-Sep-10 09:00N 78°12' E 015°36'2 3.7 130 / 171006.9 5.3-1.2 4.8
2019-Sep-10 08:31N 78°14' E 015°36'0 0.0
2019-Sep-10 08:00N 78°14' E 015°36'2107.7
2019-Sep-10 08:00N 78°12' E 015°36'2 3.6 140 / 211007.2 5.0-1.3 4.8
2019-Sep-10 07:30N 78°14' E 015°36'0 0.5
2019-Sep-10 07:00N 78°14' E 015°36'2181.7
2019-Sep-10 07:00N 78°12' E 015°30'3 6.7 140 / 251007.7 4.8-1.4 4.8
2019-Sep-10 06:30N 78°15' E 015°35'2 5.0
2019-Sep-10 06:00N 78°16' E 015°24'4378.8
2019-Sep-10 06:00N 78°12' E 015°24'4 7.0 200 / 191008.3 5.2-1.0 4.7
2019-Sep-10 05:28N 78°15' E 015°16'4 8.2
2019-Sep-10 05:00N 78°12' E 015°06'391.7 210 / 21009.1 4.2 0.7 4.7
2019-Sep-10 04:58N 78°14' E 015°11'1 2.4
2019-Sep-10 04:28N 78°13' E 015°08'1 2.5
2019-Sep-10 04:00N 78°13' E 015°05'199.1
2019-Sep-10 04:00N 78°12' E 015°00'1 1.9 330 / 41009.6 4.2-0.0 4.8
2019-Sep-10 03:30N 78°11' E 014°58'2 3.6
2019-Sep-10 03:00N 78°13' E 015°01'1534.7
2019-Sep-10 03:00N 78°12' E 015°00'3 6.0 130 / 61010.7 3.6-0.4 4.6
2019-Sep-10 02:30N 78°15' E 015°06'2 3.9
2019-Sep-10 02:00N 78°16' E 015°10'51367.0
2019-Sep-10 02:00N 78°12' E 015°06'612.9 080 / 171011.3 4.2-1.9 4.5
2019-Sep-10 01:30N 78°18' E 015°15'2 4.1
2019-Sep-10 01:00N 78°20' E 015°20'2133.4
2019-Sep-10 01:00N 78°18' E 015°18'4 8.1 080 / 141012.8 3.2-1.9 4.4
2019-Sep-10 00:30N 78°22' E 015°26'2 4.3
2019-Sep-10 00:00N 78°23' E 015°33'51580.3
2019-Sep-10 00:00N 78°18' E 015°30'714.4 100 / 291013.7 2.1-2.8 4.6
2019-Sep-09 23:30N 78°25' E 015°41'2 4.2
2019-Sep-09 23:00N 78°26' E 015°49'21276.4
2019-Sep-09 23:00N 78°24' E 015°48'4 7.7 110 / 251014.8 2.2-3.0 4.7
2019-Sep-09 22:30N 78°27' E 015°56'2 4.1
2019-Sep-09 22:00N 78°29' E 016°04'5538.2
2019-Sep-09 22:00N 78°24' E 016°00'714.1 220 / 171015.4 2.6-3.2 4.9
2019-Sep-09 21:30N 78°31' E 016°11'2 4.3
2019-Sep-09 21:00N 78°32' E 016°17'2175.6
2019-Sep-09 21:00N 78°30' E 016°12'5 9.5 180 / 41016.2 1.8-4.2 4.8
2019-Sep-09 20:30N 78°34' E 016°24'2 4.5
2019-Sep-09 20:00N 78°36' E 016°30'0148.1 290 / 21016.5 1.4-4.9 5.0
2019-Sep-09 19:59N 78°36' E 016°31'3 5.7
2019-Sep-09 19:26N 78°39' E 016°41'2 5.6
2019-Sep-09 19:00N 78°40' E 016°52'1 2.3
2019-Sep-09 18:30N 78°39' E 016°47'5 9.2
2019-Sep-09 18:00N 78°39' E 016°24'3369.8
2019-Sep-09 18:00N 78°36' E 016°18'3 7.0 270 / 21016.8 1.0-4.8 4.8
2019-Sep-09 17:30N 78°39' E 016°23'0 0.0
2019-Sep-09 17:00N 78°39' E 016°23'3398.5
2019-Sep-09 17:00N 78°36' E 016°18'3 7.0 290 / 21016.8 1.3-5.2 4.8
2019-Sep-09 16:30N 78°39' E 016°23'0 0.0
2019-Sep-09 16:00N 78°39' E 016°23'3411.8
2019-Sep-09 16:00N 78°36' E 016°18'3 7.0 020 / 41016.8 1.1-5.4 4.8
2019-Sep-09 15:30N 78°39' E 016°23'0 0.0
2019-Sep-09 15:00N 78°39' E 016°23'3441.2
2019-Sep-09 15:00N 78°36' E 016°18'3 7.0 010 / 21016.7 1.5-5.3 4.7
2019-Sep-09 14:30N 78°39' E 016°23'3 6.5
2019-Sep-09 14:00N 78°36' E 016°24'143.1 030 / 191016.7 0.5-5.2 4.7
2019-Sep-09 13:58N 78°37' E 016°26'4 9.0
2019-Sep-09 13:29N 78°33' E 016°18'4 8.8
2019-Sep-09 13:00N 78°29' E 016°06'6344.8
2019-Sep-09 13:00N 78°24' E 016°00'3 5.4 060 / 171016.0 1.6-5.1 4.8
2019-Sep-09 12:31N 78°26' E 015°51'5 9.2
2019-Sep-09 12:00N 78°22' E 015°37'4796.7
2019-Sep-09 12:00N 78°18' E 015°36'3 5.2 060 / 191015.0 2.6-4.8 4.7
2019-Sep-09 11:30N 78°18' E 015°24'510.2
2019-Sep-09 11:00N 78°14' E 015°09'2852.8
2019-Sep-09 11:00N 78°12' E 015°06'3 5.4 200 / 41013.7 3.5-3.0 4.6
2019-Sep-09 10:30N 78°10' E 014°58'3 5.0
2019-Sep-09 10:00N 78°07' E 014°55'0 0.0
2019-Sep-09 09:15N 78°07' E 014°55'0 0.0
2019-Sep-09 08:39N 78°07' E 014°55'0 0.0
2019-Sep-09 08:24N 78°07' E 014°55'0 0.0
2019-Sep-09 07:36N 78°08' E 014°55'0 0.0
2019-Sep-09 07:27N 78°08' E 014°55'0 0.0
2019-Sep-09 06:54N 78°08' E 014°55'0 0.0
2019-Sep-09 06:30N 78°08' E 014°55'1 0.1
2019-Sep-09 02:00N 78°07' E 014°56'2 5.0
2019-Sep-09 01:30N 78°09' E 014°54'2 4.9
2019-Sep-09 01:01N 78°12' E 014°56'6340.7
2019-Sep-09 01:00N 78°06' E 014°54'714.9 030 / 161009.5 3.4-1.6 4.8
2019-Sep-09 00:30N 78°13' E 014°59'1 3.0
2019-Sep-09 00:01N 78°15' E 015°02'3158.9
2019-Sep-09 00:00N 78°12' E 015°00'4 8.5 050 / 161009.6 2.4-1.2 4.8
2019-Sep-08 23:30N 78°16' E 015°04'2 3.4
2019-Sep-08 23:00N 78°18' E 015°06'2 3.5
2019-Sep-08 22:30N 78°20' E 015°08'2 3.6
2019-Sep-08 22:00N 78°21' E 015°11'3236.7
2019-Sep-08 22:00N 78°18' E 015°06'3 6.9 070 / 141010.0 2.3-0.9 4.5
2019-Sep-08 21:29N 78°21' E 015°15'2 3.1
2019-Sep-08 21:00N 78°20' E 015°12'1 2.5
2019-Sep-08 20:30N 78°21' E 015°15'1 1.4
2019-Sep-08 20:00N 78°20' E 015°15'2144.9
2019-Sep-08 20:00N 78°18' E 015°12'4 8.0 070 / 81010.1 2.5-1.3 4.5
2019-Sep-08 19:30N 78°17' E 014°53'510.7
2019-Sep-08 19:00N 78°15' E 014°30'3234.7
2019-Sep-08 19:00N 78°12' E 014°24'4 7.6 040 / 141009.8 3.3-1.2 4.8
2019-Sep-08 18:30N 78°13' E 014°06'510.7
2019-Sep-08 18:00N 78°10' E 013°42'4789.5
2019-Sep-08 18:00N 78°06' E 013°42'611.9 080 / 171009.2 3.0-0.9 4.8
2019-Sep-08 17:30N 78°10' E 013°19'510.5
2019-Sep-08 17:00N 78°09' E 012°54'3384.0
2019-Sep-08 17:00N 78°06' E 012°54'612.0 110 / 101009.4 3.2-0.2 3.8
2019-Sep-08 16:30N 78°09' E 012°29'510.0
2019-Sep-08 16:00N 78°09' E 012°05'31005.3
2019-Sep-08 16:00N 78°06' E 012°00'5 9.8 120 / 141009.4 3.7 0.3 4.4
2019-Sep-08 15:30N 78°09' E 011°41'4 8.4
2019-Sep-08 15:00N 78°09' E 011°20'3294.1
2019-Sep-08 15:00N 78°06' E 011°18'4 9.1 130 / 141009.6 3.8-0.0 4.6
2019-Sep-08 14:30N 78°10' E 011°05'510.2
2019-Sep-08 14:00N 78°10' E 010°40'4453.5
2019-Sep-08 14:00N 78°06' E 010°36'511.0 120 / 101009.6 4.0-1.6 5.3
2019-Sep-08 13:30N 78°10' E 010°19'510.8
2019-Sep-08 13:00N 78°10' E 009°53'4537.8
2019-Sep-08 13:00N 78°06' E 009°48'510.4 140 / 101009.8 4.3-1.7 5.3
2019-Sep-08 12:30N 78°11' E 009°42'2 3.4
2019-Sep-08 12:00N 78°12' E 009°45'1140.5
2019-Sep-08 12:00N 78°12' E 009°42'2 3.2 160 / 121010.1 4.6-1.4 5.4
2019-Sep-08 11:30N 78°13' E 009°46'0 0.2
2019-Sep-08 11:00N 78°13' E 009°46'0 0.2
2019-Sep-08 10:30N 78°13' E 009°45'1 2.3
2019-Sep-08 10:00N 78°12' E 009°44'164.4
2019-Sep-08 10:00N 78°12' E 009°42'1 2.8 180 / 81010.8 4.0-2.8 5.4
2019-Sep-08 09:30N 78°11' E 009°42'510.5
2019-Sep-08 09:00N 78°06' E 009°34'6350.2
2019-Sep-08 09:00N 78°00' E 009°30'0 0.0 200 / 81010.7 4.7-2.2 5.7
2019-Sep-08 08:00N 78°00' E 009°30'1 1.7 210 / 101011.0 4.7-1.5 6.8
2019-Sep-08 07:39N 77°60' E 009°32'2 4.6
2019-Sep-08 07:19N 78°01' E 009°29'2 4.8
2019-Sep-08 07:00N 78°00' E 009°24'2 4.8 210 / 141011.1 4.7-2.7 5.9
2019-Sep-08 06:39N 78°01' E 009°29'1 1.9
2019-Sep-08 06:00N 78°00' E 009°30'7 7.1 210 / 101011.2 4.5-2.4 5.7
2019-Sep-08 05:00N 77°54' E 009°48'553.2 210 / 141011.2 4.5-2.4 5.4
2019-Sep-08 04:54N 77°59' E 009°59'410.5
2019-Sep-08 04:30N 77°57' E 010°17'510.3
2019-Sep-08 04:00N 77°55' E 010°39'3 6.5
2019-Sep-08 03:30N 77°53' E 010°53'2 4.5
2019-Sep-08 03:00N 77°55' E 010°59'2313.8
2019-Sep-08 03:00N 77°54' E 010°54'1 2.3 260 / 101012.0 4.2-3.6 5.2
2019-Sep-08 02:30N 77°54' E 010°49'0 0.2
2019-Sep-08 02:00N 77°54' E 010°49'026.8
2019-Sep-08 02:00N 77°54' E 010°48'1 2.6 250 / 141012.1 4.4-3.4 5.4
2019-Sep-08 01:30N 77°54' E 010°54'2 3.4
2019-Sep-08 01:00N 77°53' E 011°01'5460.4
2019-Sep-08 01:00N 77°48' E 011°00'510.6 260 / 161012.1 4.5-4.0 5.3
2019-Sep-08 00:30N 77°51' E 011°21'5 9.9
2019-Sep-08 00:00N 77°48' E 011°40'1353.0
2019-Sep-08 00:00N 77°48' E 011°36'611.5 260 / 171012.1 4.5-4.5 5.3
2019-Sep-07 23:30N 77°45' E 011°59'5 9.9
2019-Sep-07 23:00N 77°42' E 012°18'1153.8
2019-Sep-07 23:00N 77°42' E 012°12'611.9 260 / 171012.1 4.2-3.8 4.0
2019-Sep-07 22:30N 77°39' E 012°36'5 9.8
2019-Sep-07 22:00N 77°36' E 012°54'023.2
2019-Sep-07 22:00N 77°36' E 012°54'5 9.7 260 / 171012.0 4.1-3.6 3.8
2019-Sep-07 21:30N 77°33' E 013°12'5 9.1
2019-Sep-07 21:00N 77°30' E 013°28'175.8
2019-Sep-07 21:00N 77°30' E 013°24'2 4.2 250 / 171012.2 4.2-2.5 3.5
2019-Sep-07 20:30N 77°31' E 013°33'0 0.9
2019-Sep-07 20:00N 77°31' E 013°31'180.2
2019-Sep-07 20:00N 77°30' E 013°30'1 1.5 240 / 191012.0 3.4-2.2 3.7
2019-Sep-07 19:30N 77°31' E 013°32'1 2.6
2019-Sep-07 19:00N 77°30' E 013°29'6406.3
2019-Sep-07 19:00N 77°24' E 013°24'4 7.3 250 / 121012.1 3.6-2.5 3.3
2019-Sep-07 18:30N 77°28' E 013°25'611.1
2019-Sep-07 18:00N 77°22' E 013°16'4322.1
2019-Sep-07 18:00N 77°18' E 013°12'1 2.5 240 / 141012.1 3.5-2.3 3.4
2019-Sep-07 17:29N 77°17' E 013°09'511.1
2019-Sep-07 17:00N 77°12' E 013°00'6439.5
2019-Sep-07 17:00N 77°06' E 013°00'2 3.8 240 / 161012.6 3.7-1.9 3.6
2019-Sep-07 16:30N 77°07' E 012°52'610.9
2019-Sep-07 16:00N 77°01' E 012°44'4 7.9
2019-Sep-07 15:26N 76°57' E 012°38'1 2.5
2019-Sep-07 15:00N 76°56' E 012°41'3458.9
2019-Sep-07 15:00N 76°54' E 012°36'3 5.2 240 / 17861.0 4.5-4.8 4.9
2019-Sep-07 14:30N 76°56' E 012°43'3 5.0
2019-Sep-07 14:00N 76°54' E 012°36'313.4 250 / 161012.6 4.5-6.7 5.1
2019-Sep-07 13:48N 76°57' E 012°37'0 0.3
2019-Sep-07 13:29N 76°57' E 012°36'1 1.2
2019-Sep-07 13:00N 76°56' E 012°34'3307.8
2019-Sep-07 13:00N 76°54' E 012°30'2 3.6 280 / 141012.9 4.3-5.2 5.0
2019-Sep-07 12:30N 76°56' E 012°27'918.0
2019-Sep-07 12:00N 76°48' E 012°06'558.4 280 / 161012.7 4.4-3.7 7.2
2019-Sep-07 11:54N 76°53' E 012°08'1415.6
2019-Sep-07 11:00N 76°42' E 011°30'1010.3 280 / 121012.7 4.5-5.6 7.0
2019-Sep-07 10:00N 76°36' E 010°54'1111.5 240 / 141012.3 4.3-6.3 6.5
2019-Sep-07 09:00N 76°30' E 010°12'7 7.0 300 / 41012.2 2.5-3.7 6.8
2019-Sep-07 08:00N 76°30' E 009°42'1 1.4 310 / 121011.8 3.5-3.8 6.7
2019-Sep-07 07:00N 76°30' E 009°36'   310 / 101011.3 4.4-5.9 6.7

Dump ship's entire track history